sensor_id;sensor_type;location;lat;lon;timestamp;temperature;humidity
24158;DHT22;12316;50.904;4.200;2023-07-24T00:01:45;19.90;99.90
24158;DHT22;12316;50.904;4.200;2023-07-24T00:04:11;19.90;99.90
24158;DHT22;12316;50.904;4.200;2023-07-24T00:06:37;19.90;99.90
24158;DHT22;12316;50.904;4.200;2023-07-24T00:09:02;20.00;99.90
24158;DHT22;12316;50.904;4.200;2023-07-24T00:11:28;20.10;99.90
24158;DHT22;12316;50.904;4.200;2023-07-24T00:13:54;20.10;99.90
24158;DHT22;12316;50.904;4.200;2023-07-24T00:16:19;20.10;99.90
24158;DHT22;12316;50.904;4.200;2023-07-24T00:18:45;20.00;99.90
24158;DHT22;12316;50.904;4.200;2023-07-24T00:21:11;19.90;99.90
24158;DHT22;12316;50.904;4.200;2023-07-24T00:23:38;20.00;99.90
24158;DHT22;12316;50.904;4.200;2023-07-24T00:26:04;20.00;99.90
24158;DHT22;12316;50.904;4.200;2023-07-24T00:28:30;20.00;99.90
24158;DHT22;12316;50.904;4.200;2023-07-24T00:30:56;19.90;99.90
24158;DHT22;12316;50.904;4.200;2023-07-24T00:33:22;19.90;99.90
24158;DHT22;12316;50.904;4.200;2023-07-24T00:35:47;19.90;99.90
24158;DHT22;12316;50.904;4.200;2023-07-24T00:38:13;19.90;99.90
24158;DHT22;12316;50.904;4.200;2023-07-24T00:40:38;19.80;99.90
24158;DHT22;12316;50.904;4.200;2023-07-24T00:43:04;19.80;99.90
24158;DHT22;12316;50.904;4.200;2023-07-24T00:45:30;19.90;99.90
24158;DHT22;12316;50.904;4.200;2023-07-24T00:47:56;19.90;99.90
24158;DHT22;12316;50.904;4.200;2023-07-24T00:50:23;20.00;99.90
24158;DHT22;12316;50.904;4.200;2023-07-24T00:52:48;20.00;99.90
24158;DHT22;12316;50.904;4.200;2023-07-24T00:55:14;20.00;99.90
24158;DHT22;12316;50.904;4.200;2023-07-24T00:57:42;20.00;99.90
24158;DHT22;12316;50.904;4.200;2023-07-24T01:00:09;20.00;99.90
24158;DHT22;12316;50.904;4.200;2023-07-24T01:02:35;19.90;99.90
24158;DHT22;12316;50.904;4.200;2023-07-24T01:05:01;20.00;99.90
24158;DHT22;12316;50.904;4.200;2023-07-24T01:07:27;20.00;99.90
24158;DHT22;12316;50.904;4.200;2023-07-24T01:09:53;20.00;99.90
24158;DHT22;12316;50.904;4.200;2023-07-24T01:12:34;20.00;99.90
24158;DHT22;12316;50.904;4.200;2023-07-24T01:17:33;20.10;99.90
24158;DHT22;12316;50.904;4.200;2023-07-24T01:20:04;20.10;99.90
24158;DHT22;12316;50.904;4.200;2023-07-24T01:22:39;20.00;99.90
24158;DHT22;12316;50.904;4.200;2023-07-24T01:25:18;19.80;99.90
24158;DHT22;12316;50.904;4.200;2023-07-24T01:27:48;19.80;99.90
24158;DHT22;12316;50.904;4.200;2023-07-24T01:30:18;19.70;99.90
24158;DHT22;12316;50.904;4.200;2023-07-24T01:32:44;19.70;99.90
24158;DHT22;12316;50.904;4.200;2023-07-24T01:35:10;19.70;99.90
24158;DHT22;12316;50.904;4.200;2023-07-24T01:37:36;19.60;99.90
24158;DHT22;12316;50.904;4.200;2023-07-24T01:40:08;19.40;99.90
24158;DHT22;12316;50.904;4.200;2023-07-24T01:42:35;19.40;99.90
24158;DHT22;12316;50.904;4.200;2023-07-24T01:45:02;19.40;99.90
24158;DHT22;12316;50.904;4.200;2023-07-24T01:47:29;19.20;99.90
24158;DHT22;12316;50.904;4.200;2023-07-24T01:49:55;19.20;99.90
24158;DHT22;12316;50.904;4.200;2023-07-24T01:52:21;19.20;99.90
24158;DHT22;12316;50.904;4.200;2023-07-24T01:54:47;19.30;99.90
24158;DHT22;12316;50.904;4.200;2023-07-24T01:57:13;19.20;99.90
24158;DHT22;12316;50.904;4.200;2023-07-24T01:59:38;19.10;99.90
24158;DHT22;12316;50.904;4.200;2023-07-24T02:02:04;19.10;99.90
24158;DHT22;12316;50.904;4.200;2023-07-24T02:04:30;19.20;99.90
24158;DHT22;12316;50.904;4.200;2023-07-24T02:06:55;19.10;99.90
24158;DHT22;12316;50.904;4.200;2023-07-24T02:09:21;19.10;99.90
24158;DHT22;12316;50.904;4.200;2023-07-24T02:11:47;19.00;99.90
24158;DHT22;12316;50.904;4.200;2023-07-24T02:14:14;19.10;99.90
24158;DHT22;12316;50.904;4.200;2023-07-24T02:16:40;19.10;99.90
24158;DHT22;12316;50.904;4.200;2023-07-24T02:19:06;19.00;99.90
24158;DHT22;12316;50.904;4.200;2023-07-24T02:21:32;19.00;99.90
24158;DHT22;12316;50.904;4.200;2023-07-24T02:23:57;19.10;99.90
24158;DHT22;12316;50.904;4.200;2023-07-24T02:26:23;19.10;99.90
24158;DHT22;12316;50.904;4.200;2023-07-24T02:28:49;19.10;99.90
24158;DHT22;12316;50.904;4.200;2023-07-24T02:31:14;19.10;99.90
24158;DHT22;12316;50.904;4.200;2023-07-24T02:33:40;19.10;99.90
24158;DHT22;12316;50.904;4.200;2023-07-24T02:36:06;19.00;99.90
24158;DHT22;12316;50.904;4.200;2023-07-24T02:38:31;19.00;99.90
24158;DHT22;12316;50.904;4.200;2023-07-24T02:40:57;18.90;99.90
24158;DHT22;12316;50.904;4.200;2023-07-24T02:43:23;18.90;99.90
24158;DHT22;12316;50.904;4.200;2023-07-24T02:45:48;18.90;99.90
24158;DHT22;12316;50.904;4.200;2023-07-24T02:48:14;18.90;99.90
24158;DHT22;12316;50.904;4.200;2023-07-24T02:50:40;18.90;99.90
24158;DHT22;12316;50.904;4.200;2023-07-24T02:53:05;18.90;99.90
24158;DHT22;12316;50.904;4.200;2023-07-24T02:55:31;18.90;99.90
24158;DHT22;12316;50.904;4.200;2023-07-24T02:57:57;18.90;99.90
24158;DHT22;12316;50.904;4.200;2023-07-24T03:00:23;18.90;99.90
24158;DHT22;12316;50.904;4.200;2023-07-24T03:02:48;18.90;99.90
24158;DHT22;12316;50.904;4.200;2023-07-24T03:05:14;18.90;99.90
24158;DHT22;12316;50.904;4.200;2023-07-24T03:07:39;18.80;99.90
24158;DHT22;12316;50.904;4.200;2023-07-24T03:10:05;18.70;99.90
24158;DHT22;12316;50.904;4.200;2023-07-24T03:12:33;18.70;99.90
24158;DHT22;12316;50.904;4.200;2023-07-24T03:14:58;18.60;99.90
24158;DHT22;12316;50.904;4.200;2023-07-24T03:17:24;18.50;99.90
24158;DHT22;12316;50.904;4.200;2023-07-24T03:19:50;18.50;99.90
24158;DHT22;12316;50.904;4.200;2023-07-24T03:22:15;18.40;99.90
24158;DHT22;12316;50.904;4.200;2023-07-24T03:24:41;18.40;99.90
24158;DHT22;12316;50.904;4.200;2023-07-24T03:27:07;18.40;99.90
24158;DHT22;12316;50.904;4.200;2023-07-24T03:29:32;18.30;99.90
24158;DHT22;12316;50.904;4.200;2023-07-24T03:31:58;18.20;99.90
24158;DHT22;12316;50.904;4.200;2023-07-24T03:34:24;18.20;99.90
24158;DHT22;12316;50.904;4.200;2023-07-24T03:36:49;18.10;99.90
24158;DHT22;12316;50.904;4.200;2023-07-24T03:39:15;18.20;99.90
24158;DHT22;12316;50.904;4.200;2023-07-24T03:41:42;18.20;99.90
24158;DHT22;12316;50.904;4.200;2023-07-24T03:44:07;18.20;99.90
24158;DHT22;12316;50.904;4.200;2023-07-24T03:46:33;18.20;99.90
24158;DHT22;12316;50.904;4.200;2023-07-24T03:48:59;18.20;99.90
24158;DHT22;12316;50.904;4.200;2023-07-24T03:51:24;18.20;99.90
24158;DHT22;12316;50.904;4.200;2023-07-24T03:53:50;18.40;99.90
24158;DHT22;12316;50.904;4.200;2023-07-24T03:56:16;18.30;99.90
24158;DHT22;12316;50.904;4.200;2023-07-24T03:58:41;18.30;99.90
24158;DHT22;12316;50.904;4.200;2023-07-24T04:01:08;18.50;99.90
24158;DHT22;12316;50.904;4.200;2023-07-24T04:03:34;18.50;99.90
24158;DHT22;12316;50.904;4.200;2023-07-24T04:06:00;18.50;99.90
24158;DHT22;12316;50.904;4.200;2023-07-24T04:08:26;18.50;99.90
24158;DHT22;12316;50.904;4.200;2023-07-24T04:10:51;18.40;99.90
24158;DHT22;12316;50.904;4.200;2023-07-24T04:13:17;18.30;99.90
24158;DHT22;12316;50.904;4.200;2023-07-24T04:15:43;18.20;99.90
24158;DHT22;12316;50.904;4.200;2023-07-24T04:18:10;18.20;99.90
24158;DHT22;12316;50.904;4.200;2023-07-24T04:20:35;18.20;99.90
24158;DHT22;12316;50.904;4.200;2023-07-24T04:23:01;18.20;99.90
24158;DHT22;12316;50.904;4.200;2023-07-24T04:25:27;18.20;99.90
24158;DHT22;12316;50.904;4.200;2023-07-24T04:27:52;18.30;99.90
24158;DHT22;12316;50.904;4.200;2023-07-24T04:30:18;18.30;99.90
24158;DHT22;12316;50.904;4.200;2023-07-24T04:32:44;18.40;99.90
24158;DHT22;12316;50.904;4.200;2023-07-24T04:35:10;18.30;99.90
24158;DHT22;12316;50.904;4.200;2023-07-24T04:37:35;18.40;99.90
24158;DHT22;12316;50.904;4.200;2023-07-24T04:40:01;18.30;99.90
24158;DHT22;12316;50.904;4.200;2023-07-24T04:42:27;18.30;99.90
24158;DHT22;12316;50.904;4.200;2023-07-24T04:44:52;18.50;99.90
24158;DHT22;12316;50.904;4.200;2023-07-24T04:47:18;18.40;99.90
24158;DHT22;12316;50.904;4.200;2023-07-24T04:49:44;18.40;99.90
24158;DHT22;12316;50.904;4.200;2023-07-24T04:52:09;18.50;99.90
24158;DHT22;12316;50.904;4.200;2023-07-24T04:54:35;18.50;99.90
24158;DHT22;12316;50.904;4.200;2023-07-24T04:57:00;18.50;99.90
24158;DHT22;12316;50.904;4.200;2023-07-24T04:59:26;18.40;99.90
24158;DHT22;12316;50.904;4.200;2023-07-24T05:01:52;18.50;99.90
24158;DHT22;12316;50.904;4.200;2023-07-24T05:04:17;18.50;99.90
24158;DHT22;12316;50.904;4.200;2023-07-24T05:06:43;18.50;99.90
24158;DHT22;12316;50.904;4.200;2023-07-24T05:09:09;18.50;99.90
24158;DHT22;12316;50.904;4.200;2023-07-24T05:11:34;18.80;99.90
24158;DHT22;12316;50.904;4.200;2023-07-24T05:14:00;18.80;99.90
24158;DHT22;12316;50.904;4.200;2023-07-24T05:16:25;18.80;99.90
24158;DHT22;12316;50.904;4.200;2023-07-24T05:18:51;18.90;99.90
24158;DHT22;12316;50.904;4.200;2023-07-24T05:21:17;19.00;99.90
24158;DHT22;12316;50.904;4.200;2023-07-24T05:23:42;19.00;99.90
24158;DHT22;12316;50.904;4.200;2023-07-24T05:26:08;19.00;99.90
24158;DHT22;12316;50.904;4.200;2023-07-24T05:28:34;19.10;99.90
24158;DHT22;12316;50.904;4.200;2023-07-24T05:31:04;19.20;99.90
24158;DHT22;12316;50.904;4.200;2023-07-24T05:33:30;19.20;99.90
24158;DHT22;12316;50.904;4.200;2023-07-24T05:36:00;19.20;99.90
24158;DHT22;12316;50.904;4.200;2023-07-24T05:38:26;19.20;99.90
24158;DHT22;12316;50.904;4.200;2023-07-24T05:40:56;19.20;99.90
24158;DHT22;12316;50.904;4.200;2023-07-24T05:43:22;19.10;99.90
24158;DHT22;12316;50.904;4.200;2023-07-24T05:45:47;19.20;99.90
24158;DHT22;12316;50.904;4.200;2023-07-24T05:48:13;19.30;99.90
24158;DHT22;12316;50.904;4.200;2023-07-24T05:50:39;19.30;99.90
24158;DHT22;12316;50.904;4.200;2023-07-24T05:53:06;19.30;99.90
24158;DHT22;12316;50.904;4.200;2023-07-24T05:55:32;19.30;99.90
24158;DHT22;12316;50.904;4.200;2023-07-24T05:57:57;19.50;99.90
24158;DHT22;12316;50.904;4.200;2023-07-24T06:00:23;19.60;99.90
24158;DHT22;12316;50.904;4.200;2023-07-24T06:02:48;19.80;99.90
24158;DHT22;12316;50.904;4.200;2023-07-24T06:05:14;19.70;99.90
24158;DHT22;12316;50.904;4.200;2023-07-24T06:07:40;19.70;99.90
24158;DHT22;12316;50.904;4.200;2023-07-24T06:10:06;19.70;99.90
24158;DHT22;12316;50.904;4.200;2023-07-24T06:12:32;19.70;99.90
24158;DHT22;12316;50.904;4.200;2023-07-24T06:14:57;19.70;99.90
24158;DHT22;12316;50.904;4.200;2023-07-24T06:17:23;19.60;99.90
24158;DHT22;12316;50.904;4.200;2023-07-24T06:19:48;19.60;99.90
24158;DHT22;12316;50.904;4.200;2023-07-24T06:22:14;19.50;99.90
24158;DHT22;12316;50.904;4.200;2023-07-24T06:24:40;19.60;99.90
24158;DHT22;12316;50.904;4.200;2023-07-24T06:27:06;19.50;99.90
24158;DHT22;12316;50.904;4.200;2023-07-24T06:29:34;19.40;99.90
24158;DHT22;12316;50.904;4.200;2023-07-24T06:32:00;19.20;99.90
24158;DHT22;12316;50.904;4.200;2023-07-24T06:34:26;19.20;99.90
24158;DHT22;12316;50.904;4.200;2023-07-24T06:36:51;19.20;99.90
24158;DHT22;12316;50.904;4.200;2023-07-24T06:39:17;19.40;99.90
24158;DHT22;12316;50.904;4.200;2023-07-24T06:41:43;19.50;99.90
24158;DHT22;12316;50.904;4.200;2023-07-24T06:44:08;19.40;99.90
24158;DHT22;12316;50.904;4.200;2023-07-24T06:46:34;19.50;99.90
24158;DHT22;12316;50.904;4.200;2023-07-24T06:49:00;19.60;99.90
24158;DHT22;12316;50.904;4.200;2023-07-24T06:51:25;19.80;99.90
24158;DHT22;12316;50.904;4.200;2023-07-24T06:53:51;19.80;99.90
24158;DHT22;12316;50.904;4.200;2023-07-24T06:56:16;19.80;99.90
24158;DHT22;12316;50.904;4.200;2023-07-24T06:58:42;19.80;99.90
24158;DHT22;12316;50.904;4.200;2023-07-24T07:01:08;19.90;99.90
24158;DHT22;12316;50.904;4.200;2023-07-24T07:03:34;19.90;99.90
24158;DHT22;12316;50.904;4.200;2023-07-24T07:06:02;20.10;99.90
24158;DHT22;12316;50.904;4.200;2023-07-24T07:08:29;20.30;99.90
24158;DHT22;12316;50.904;4.200;2023-07-24T07:10:59;20.60;99.90
24158;DHT22;12316;50.904;4.200;2023-07-24T07:13:26;20.80;99.90
24158;DHT22;12316;50.904;4.200;2023-07-24T07:15:51;21.00;99.90
24158;DHT22;12316;50.904;4.200;2023-07-24T07:18:17;20.80;99.90
24158;DHT22;12316;50.904;4.200;2023-07-24T07:20:47;21.00;99.90
24158;DHT22;12316;50.904;4.200;2023-07-24T07:23:14;21.30;99.90
24158;DHT22;12316;50.904;4.200;2023-07-24T07:25:39;21.60;99.90
24158;DHT22;12316;50.904;4.200;2023-07-24T07:28:05;21.60;99.90
24158;DHT22;12316;50.904;4.200;2023-07-24T07:30:31;21.60;99.90
24158;DHT22;12316;50.904;4.200;2023-07-24T07:32:57;21.70;99.90
24158;DHT22;12316;50.904;4.200;2023-07-24T07:35:22;21.80;99.90
24158;DHT22;12316;50.904;4.200;2023-07-24T07:37:49;21.70;99.90
24158;DHT22;12316;50.904;4.200;2023-07-24T07:40:20;21.50;99.90
24158;DHT22;12316;50.904;4.200;2023-07-24T07:42:48;21.20;99.90
24158;DHT22;12316;50.904;4.200;2023-07-24T07:45:16;21.30;99.90
24158;DHT22;12316;50.904;4.200;2023-07-24T07:47:41;21.40;99.90
24158;DHT22;12316;50.904;4.200;2023-07-24T07:50:08;21.40;99.90
24158;DHT22;12316;50.904;4.200;2023-07-24T07:52:34;21.40;99.90
24158;DHT22;12316;50.904;4.200;2023-07-24T07:55:01;21.40;99.90
24158;DHT22;12316;50.904;4.200;2023-07-24T07:57:26;21.40;99.90
24158;DHT22;12316;50.904;4.200;2023-07-24T07:59:52;21.70;99.90
24158;DHT22;12316;50.904;4.200;2023-07-24T08:02:18;21.70;99.90
24158;DHT22;12316;50.904;4.200;2023-07-24T08:04:43;21.80;99.90
24158;DHT22;12316;50.904;4.200;2023-07-24T08:07:09;22.00;99.90
24158;DHT22;12316;50.904;4.200;2023-07-24T08:09:34;22.10;99.90
24158;DHT22;12316;50.904;4.200;2023-07-24T08:12:01;21.90;99.90
24158;DHT22;12316;50.904;4.200;2023-07-24T08:14:27;21.90;99.90
24158;DHT22;12316;50.904;4.200;2023-07-24T08:16:53;21.50;99.90
24158;DHT22;12316;50.904;4.200;2023-07-24T08:19:19;21.60;99.90
24158;DHT22;12316;50.904;4.200;2023-07-24T08:21:44;21.70;99.90
24158;DHT22;12316;50.904;4.200;2023-07-24T08:24:11;21.90;99.90
24158;DHT22;12316;50.904;4.200;2023-07-24T08:26:37;22.10;99.90
24158;DHT22;12316;50.904;4.200;2023-07-24T08:29:04;22.30;99.90
24158;DHT22;12316;50.904;4.200;2023-07-24T08:31:30;22.30;99.90
24158;DHT22;12316;50.904;4.200;2023-07-24T08:33:56;22.30;99.90
24158;DHT22;12316;50.904;4.200;2023-07-24T08:36:21;22.30;99.90
24158;DHT22;12316;50.904;4.200;2023-07-24T08:38:47;22.10;99.90
24158;DHT22;12316;50.904;4.200;2023-07-24T08:41:14;22.20;99.90
24158;DHT22;12316;50.904;4.200;2023-07-24T08:43:41;22.30;99.90
24158;DHT22;12316;50.904;4.200;2023-07-24T08:46:08;22.60;99.90
24158;DHT22;12316;50.904;4.200;2023-07-24T08:48:35;22.70;99.90
24158;DHT22;12316;50.904;4.200;2023-07-24T08:51:03;22.70;99.90
24158;DHT22;12316;50.904;4.200;2023-07-24T08:53:30;22.60;99.90
24158;DHT22;12316;50.904;4.200;2023-07-24T08:55:56;22.50;99.90
24158;DHT22;12316;50.904;4.200;2023-07-24T08:58:23;22.40;99.90
24158;DHT22;12316;50.904;4.200;2023-07-24T09:00:48;22.30;99.90
24158;DHT22;12316;50.904;4.200;2023-07-24T09:03:14;22.20;99.90
24158;DHT22;12316;50.904;4.200;2023-07-24T09:05:40;22.10;99.90
24158;DHT22;12316;50.904;4.200;2023-07-24T09:08:05;21.90;99.90
24158;DHT22;12316;50.904;4.200;2023-07-24T09:10:31;22.00;99.90
24158;DHT22;12316;50.904;4.200;2023-07-24T09:12:57;22.10;99.90
24158;DHT22;12316;50.904;4.200;2023-07-24T09:15:22;22.40;99.90
24158;DHT22;12316;50.904;4.200;2023-07-24T09:17:52;22.50;99.90
24158;DHT22;12316;50.904;4.200;2023-07-24T09:20:19;22.60;99.90
24158;DHT22;12316;50.904;4.200;2023-07-24T09:22:54;22.80;99.90
24158;DHT22;12316;50.904;4.200;2023-07-24T09:25:32;23.10;99.90
24158;DHT22;12316;50.904;4.200;2023-07-24T09:27:59;23.00;99.90
24158;DHT22;12316;50.904;4.200;2023-07-24T09:30:24;22.90;99.90
24158;DHT22;12316;50.904;4.200;2023-07-24T09:32:54;22.90;99.90
24158;DHT22;12316;50.904;4.200;2023-07-24T09:35:20;23.00;99.90
24158;DHT22;12316;50.904;4.200;2023-07-24T09:38:05;22.90;99.90
24158;DHT22;12316;50.904;4.200;2023-07-24T09:40:46;22.90;99.90
24158;DHT22;12316;50.904;4.200;2023-07-24T09:43:20;22.90;99.90
24158;DHT22;12316;50.904;4.200;2023-07-24T09:45:48;22.90;99.90
24158;DHT22;12316;50.904;4.200;2023-07-24T09:48:15;22.90;99.90
24158;DHT22;12316;50.904;4.200;2023-07-24T09:50:42;22.80;99.90
24158;DHT22;12316;50.904;4.200;2023-07-24T09:53:28;22.80;99.90
24158;DHT22;12316;50.904;4.200;2023-07-24T09:56:05;22.80;99.90
24158;DHT22;12316;50.904;4.200;2023-07-24T09:58:39;22.90;99.90
24158;DHT22;12316;50.904;4.200;2023-07-24T10:01:07;23.00;99.90
24158;DHT22;12316;50.904;4.200;2023-07-24T10:03:45;23.10;99.90
24158;DHT22;12316;50.904;4.200;2023-07-24T10:06:11;23.30;99.90
24158;DHT22;12316;50.904;4.200;2023-07-24T10:08:38;23.70;99.90
24158;DHT22;12316;50.904;4.200;2023-07-24T10:11:04;24.10;99.90
24158;DHT22;12316;50.904;4.200;2023-07-24T10:13:30;24.30;99.90
24158;DHT22;12316;50.904;4.200;2023-07-24T10:15:57;24.60;99.90
24158;DHT22;12316;50.904;4.200;2023-07-24T10:18:28;24.90;99.90
24158;DHT22;12316;50.904;4.200;2023-07-24T10:21:05;25.30;99.90
24158;DHT22;12316;50.904;4.200;2023-07-24T10:23:37;25.50;99.90
24158;DHT22;12316;50.904;4.200;2023-07-24T10:26:06;25.50;99.90
24158;DHT22;12316;50.904;4.200;2023-07-24T10:28:37;25.20;99.90
24158;DHT22;12316;50.904;4.200;2023-07-24T10:31:26;25.00;99.90
24158;DHT22;12316;50.904;4.200;2023-07-24T10:33:53;24.70;99.90
24158;DHT22;12316;50.904;4.200;2023-07-24T10:36:20;24.40;99.90
24158;DHT22;12316;50.904;4.200;2023-07-24T10:38:52;24.00;99.90
24158;DHT22;12316;50.904;4.200;2023-07-24T10:41:18;23.80;99.90
24158;DHT22;12316;50.904;4.200;2023-07-24T10:43:49;23.70;99.90
24158;DHT22;12316;50.904;4.200;2023-07-24T10:46:17;23.70;99.90
24158;DHT22;12316;50.904;4.200;2023-07-24T10:48:48;23.80;99.90
24158;DHT22;12316;50.904;4.200;2023-07-24T10:51:15;23.80;99.90
24158;DHT22;12316;50.904;4.200;2023-07-24T10:53:46;23.80;99.90
24158;DHT22;12316;50.904;4.200;2023-07-24T10:56:12;23.80;99.90
24158;DHT22;12316;50.904;4.200;2023-07-24T10:58:38;24.00;99.90
24158;DHT22;12316;50.904;4.200;2023-07-24T11:01:04;24.00;99.90
24158;DHT22;12316;50.904;4.200;2023-07-24T11:03:31;23.90;99.90
24158;DHT22;12316;50.904;4.200;2023-07-24T11:05:58;23.80;99.90
24158;DHT22;12316;50.904;4.200;2023-07-24T11:08:24;24.00;99.90
24158;DHT22;12316;50.904;4.200;2023-07-24T11:10:52;24.10;99.90
24158;DHT22;12316;50.904;4.200;2023-07-24T11:13:25;24.20;99.90
24158;DHT22;12316;50.904;4.200;2023-07-24T11:15:52;24.30;99.90
24158;DHT22;12316;50.904;4.200;2023-07-24T11:18:19;24.10;99.90
24158;DHT22;12316;50.904;4.200;2023-07-24T11:20:50;24.30;99.90
24158;DHT22;12316;50.904;4.200;2023-07-24T11:23:16;24.50;99.90
24158;DHT22;12316;50.904;4.200;2023-07-24T11:25:42;24.50;99.90
24158;DHT22;12316;50.904;4.200;2023-07-24T11:28:10;24.50;99.90
24158;DHT22;12316;50.904;4.200;2023-07-24T11:30:36;24.40;99.90
24158;DHT22;12316;50.904;4.200;2023-07-24T11:33:04;24.40;99.90
24158;DHT22;12316;50.904;4.200;2023-07-24T11:35:31;24.60;99.90
24158;DHT22;12316;50.904;4.200;2023-07-24T11:37:57;24.80;99.90
24158;DHT22;12316;50.904;4.200;2023-07-24T11:40:32;24.90;99.90
24158;DHT22;12316;50.904;4.200;2023-07-24T11:42:58;24.70;99.90
24158;DHT22;12316;50.904;4.200;2023-07-24T11:45:24;24.20;99.90
24158;DHT22;12316;50.904;4.200;2023-07-24T11:47:50;24.20;99.90
24158;DHT22;12316;50.904;4.200;2023-07-24T11:50:18;24.40;99.90
24158;DHT22;12316;50.904;4.200;2023-07-24T11:52:48;24.40;99.90
24158;DHT22;12316;50.904;4.200;2023-07-24T11:55:19;24.60;99.90
24158;DHT22;12316;50.904;4.200;2023-07-24T11:57:59;24.60;99.90
24158;DHT22;12316;50.904;4.200;2023-07-24T12:00:25;24.60;99.90
24158;DHT22;12316;50.904;4.200;2023-07-24T12:02:52;24.60;99.90
24158;DHT22;12316;50.904;4.200;2023-07-24T12:05:18;24.90;99.90
24158;DHT22;12316;50.904;4.200;2023-07-24T12:07:44;25.00;99.90
24158;DHT22;12316;50.904;4.200;2023-07-24T12:10:12;24.80;99.90
24158;DHT22;12316;50.904;4.200;2023-07-24T12:12:45;24.80;99.90
24158;DHT22;12316;50.904;4.200;2023-07-24T12:15:12;25.00;99.90
24158;DHT22;12316;50.904;4.200;2023-07-24T12:17:38;24.90;99.90
24158;DHT22;12316;50.904;4.200;2023-07-24T12:20:05;24.60;99.90
24158;DHT22;12316;50.904;4.200;2023-07-24T12:22:32;24.30;99.90
24158;DHT22;12316;50.904;4.200;2023-07-24T12:24:58;24.10;99.90
24158;DHT22;12316;50.904;4.200;2023-07-24T12:27:24;23.90;99.90
24158;DHT22;12316;50.904;4.200;2023-07-24T12:29:51;23.80;99.90
24158;DHT22;12316;50.904;4.200;2023-07-24T12:32:16;23.80;99.90
24158;DHT22;12316;50.904;4.200;2023-07-24T12:34:45;23.60;99.90
24158;DHT22;12316;50.904;4.200;2023-07-24T12:37:10;23.70;99.90
24158;DHT22;12316;50.904;4.200;2023-07-24T12:39:36;23.80;99.90
24158;DHT22;12316;50.904;4.200;2023-07-24T12:42:02;23.90;99.90
24158;DHT22;12316;50.904;4.200;2023-07-24T12:44:28;24.00;99.90
24158;DHT22;12316;50.904;4.200;2023-07-24T12:46:53;24.10;99.90
24158;DHT22;12316;50.904;4.200;2023-07-24T12:49:19;24.10;99.90
24158;DHT22;12316;50.904;4.200;2023-07-24T12:51:44;24.00;99.90
24158;DHT22;12316;50.904;4.200;2023-07-24T12:54:10;23.90;99.90
24158;DHT22;12316;50.904;4.200;2023-07-24T12:56:36;23.90;99.90
24158;DHT22;12316;50.904;4.200;2023-07-24T12:59:02;23.70;99.90
24158;DHT22;12316;50.904;4.200;2023-07-24T13:01:28;23.60;99.90
24158;DHT22;12316;50.904;4.200;2023-07-24T13:03:54;23.70;99.90
24158;DHT22;12316;50.904;4.200;2023-07-24T13:06:20;23.60;99.90
24158;DHT22;12316;50.904;4.200;2023-07-24T13:08:46;23.70;99.90
24158;DHT22;12316;50.904;4.200;2023-07-24T13:11:11;23.80;99.90
24158;DHT22;12316;50.904;4.200;2023-07-24T13:13:37;24.00;99.90
24158;DHT22;12316;50.904;4.200;2023-07-24T13:16:03;24.10;99.90
24158;DHT22;12316;50.904;4.200;2023-07-24T13:18:29;23.90;99.90
24158;DHT22;12316;50.904;4.200;2023-07-24T13:20:56;23.90;99.90
24158;DHT22;12316;50.904;4.200;2023-07-24T13:23:21;24.20;99.90
24158;DHT22;12316;50.904;4.200;2023-07-24T13:25:47;24.40;99.90
24158;DHT22;12316;50.904;4.200;2023-07-24T13:28:13;24.50;99.90
24158;DHT22;12316;50.904;4.200;2023-07-24T13:30:39;24.70;99.90
24158;DHT22;12316;50.904;4.200;2023-07-24T13:33:04;24.70;99.90
24158;DHT22;12316;50.904;4.200;2023-07-24T13:35:30;24.80;99.90
24158;DHT22;12316;50.904;4.200;2023-07-24T13:37:56;25.10;99.90
24158;DHT22;12316;50.904;4.200;2023-07-24T13:40:21;25.00;99.90
24158;DHT22;12316;50.904;4.200;2023-07-24T13:42:47;25.00;99.90
24158;DHT22;12316;50.904;4.200;2023-07-24T13:45:13;24.80;99.90
24158;DHT22;12316;50.904;4.200;2023-07-24T13:47:38;24.70;99.90
24158;DHT22;12316;50.904;4.200;2023-07-24T13:50:04;24.80;99.90
24158;DHT22;12316;50.904;4.200;2023-07-24T13:52:30;24.70;99.90
24158;DHT22;12316;50.904;4.200;2023-07-24T13:54:56;24.60;99.90
24158;DHT22;12316;50.904;4.200;2023-07-24T13:57:22;24.30;99.90
24158;DHT22;12316;50.904;4.200;2023-07-24T13:59:47;24.20;99.90
24158;DHT22;12316;50.904;4.200;2023-07-24T14:02:13;24.30;99.90
24158;DHT22;12316;50.904;4.200;2023-07-24T14:04:40;24.30;99.90
24158;DHT22;12316;50.904;4.200;2023-07-24T14:07:05;24.10;99.90
24158;DHT22;12316;50.904;4.200;2023-07-24T14:09:31;24.20;99.90
24158;DHT22;12316;50.904;4.200;2023-07-24T14:11:59;24.20;99.90
24158;DHT22;12316;50.904;4.200;2023-07-24T14:14:26;24.30;99.90
24158;DHT22;12316;50.904;4.200;2023-07-24T14:16:52;24.20;99.90
24158;DHT22;12316;50.904;4.200;2023-07-24T14:19:18;23.70;99.90
24158;DHT22;12316;50.904;4.200;2023-07-24T14:21:44;23.10;99.90
24158;DHT22;12316;50.904;4.200;2023-07-24T14:24:10;22.20;99.90
24158;DHT22;12316;50.904;4.200;2023-07-24T14:26:35;21.50;99.90
24158;DHT22;12316;50.904;4.200;2023-07-24T14:29:04;20.70;99.90
24158;DHT22;12316;50.904;4.200;2023-07-24T14:31:30;20.40;99.90
24158;DHT22;12316;50.904;4.200;2023-07-24T14:33:55;20.40;99.90
24158;DHT22;12316;50.904;4.200;2023-07-24T14:36:21;20.20;99.90
24158;DHT22;12316;50.904;4.200;2023-07-24T14:38:47;20.00;99.90
24158;DHT22;12316;50.904;4.200;2023-07-24T14:41:13;19.70;99.90
24158;DHT22;12316;50.904;4.200;2023-07-24T14:43:41;19.20;99.90
24158;DHT22;12316;50.904;4.200;2023-07-24T14:46:06;18.60;99.90
24158;DHT22;12316;50.904;4.200;2023-07-24T14:48:32;18.30;99.90
24158;DHT22;12316;50.904;4.200;2023-07-24T14:50:58;18.20;99.90
24158;DHT22;12316;50.904;4.200;2023-07-24T14:53:23;18.10;99.90
24158;DHT22;12316;50.904;4.200;2023-07-24T14:55:49;18.10;99.90
24158;DHT22;12316;50.904;4.200;2023-07-24T14:58:15;18.20;99.90
24158;DHT22;12316;50.904;4.200;2023-07-24T15:00:40;18.20;99.90
24158;DHT22;12316;50.904;4.200;2023-07-24T15:03:06;18.30;99.90
24158;DHT22;12316;50.904;4.200;2023-07-24T15:05:32;18.20;99.90
24158;DHT22;12316;50.904;4.200;2023-07-24T15:07:57;18.40;99.90
24158;DHT22;12316;50.904;4.200;2023-07-24T15:10:23;18.40;99.90
24158;DHT22;12316;50.904;4.200;2023-07-24T15:12:49;18.60;99.90
24158;DHT22;12316;50.904;4.200;2023-07-24T15:15:14;18.90;99.90
24158;DHT22;12316;50.904;4.200;2023-07-24T15:17:40;19.20;99.90
24158;DHT22;12316;50.904;4.200;2023-07-24T15:20:06;19.30;99.90
24158;DHT22;12316;50.904;4.200;2023-07-24T15:22:34;19.40;99.90
24158;DHT22;12316;50.904;4.200;2023-07-24T15:24:59;19.60;99.90
24158;DHT22;12316;50.904;4.200;2023-07-24T15:27:25;19.70;99.90
24158;DHT22;12316;50.904;4.200;2023-07-24T15:29:51;20.00;99.90